KJFK

John F Kennedy International Airport

New York, New York, USA
KJFK 190825Z 1908/2012 03008KT P6SM SKC FM191800 17010KT P6SM FEW050 FM200200 18005KT P6SM SKC FM200600 VRB04KT P6SM SKC
Issued Valid From Valid To
Jul-19 @ 08:25 UTC
(an hour ago)
Jul-19 @ 08:00 UTC
(2 hours ago)
Jul-20 @ 12:00 UTC
(-1 days ago)
Jul-19 @ 08:00 to Jul-19 @ 18:00
KJFK 190825Z 1908/2012 03008KT P6SM SKC
Wind Visibility Clouds
30° at 8 knots Greater than 6 miles
  • Clear skies
From Jul-19 @ 18:00 to Jul-20 @ 02:00
FM191800 17010KT P6SM FEW050
Wind Visibility Clouds
170° at 10 knots Greater than 6 miles
  • Few at 5,000' AGL
From Jul-20 @ 02:00 to Jul-20 @ 06:00
FM200200 18005KT P6SM SKC
Wind Visibility Clouds
180° at 5 knots Greater than 6 miles
  • Clear skies
From Jul-20 @ 06:00 to Jul-20 @ 12:00
FM200600 VRB04KT P6SM SKC
Wind Visibility Clouds
Variable at 4 knots Greater than 6 miles
  • Clear skies
KJFK 190825Z 1908/2012 03008KT P6SM SKC FM191800 17010KT P6SM FEW050 FM200200 18005KT P6SM SKC FM200600 VRB04KT P6SM SKC
Issued Jul-19 @ 08:25 UTC
(an hour ago)
Valid From Jul-19 @ 08:00 UTC
(2 hours ago)
Valid To Jul-20 @ 12:00 UTC
(-1 days ago)
Jul-19 @ 08:00 - Jul-19 @ 18:00
Wind Visibility
30° at 8 knots Greater than 6 miles
Clouds
  • Clear skies
From Jul-19 @ 18:00 - Jul-20 @ 02:00
Wind Visibility
170° at 10 knots Greater than 6 miles
Clouds
  • Few at 5,000' AGL
From Jul-20 @ 02:00 - Jul-20 @ 06:00
Wind Visibility
180° at 5 knots Greater than 6 miles
Clouds
  • Clear skies
From Jul-20 @ 06:00 - Jul-20 @ 12:00
Wind Visibility
Variable at 4 knots Greater than 6 miles
Clouds
  • Clear skies